sensor_id;sensor_type;location;lat;lon;timestamp;temperature;humidity
8103;DHT22;4094;49.948;11.574;2022-08-23T00:01:35;20.40;56.90
8103;DHT22;4094;49.948;11.574;2022-08-23T00:04:08;20.40;56.90
8103;DHT22;4094;49.948;11.574;2022-08-23T00:06:39;20.30;56.90
8103;DHT22;4094;49.948;11.574;2022-08-23T00:09:09;20.40;56.80
8103;DHT22;4094;49.948;11.574;2022-08-23T00:11:42;20.30;56.70
8103;DHT22;4094;49.948;11.574;2022-08-23T00:14:14;20.30;56.80
8103;DHT22;4094;49.948;11.574;2022-08-23T00:16:45;20.30;56.70
8103;DHT22;4094;49.948;11.574;2022-08-23T00:19:15;20.30;56.80
8103;DHT22;4094;49.948;11.574;2022-08-23T00:21:46;20.30;56.90
8103;DHT22;4094;49.948;11.574;2022-08-23T00:24:16;20.20;57.00
8103;DHT22;4094;49.948;11.574;2022-08-23T00:26:55;20.20;57.20
8103;DHT22;4094;49.948;11.574;2022-08-23T00:29:29;20.20;57.20
8103;DHT22;4094;49.948;11.574;2022-08-23T00:31:59;20.10;57.20
8103;DHT22;4094;49.948;11.574;2022-08-23T00:34:28;20.10;57.40
8103;DHT22;4094;49.948;11.574;2022-08-23T00:36:58;20.00;57.40
8103;DHT22;4094;49.948;11.574;2022-08-23T00:39:27;20.00;57.40
8103;DHT22;4094;49.948;11.574;2022-08-23T00:42:01;20.00;57.50
8103;DHT22;4094;49.948;11.574;2022-08-23T00:44:51;19.90;57.50
8103;DHT22;4094;49.948;11.574;2022-08-23T00:47:39;19.90;57.30
8103;DHT22;4094;49.948;11.574;2022-08-23T00:50:17;19.80;57.40
8103;DHT22;4094;49.948;11.574;2022-08-23T00:52:57;19.80;57.60
8103;DHT22;4094;49.948;11.574;2022-08-23T00:55:31;19.70;57.60
8103;DHT22;4094;49.948;11.574;2022-08-23T00:58:02;19.70;57.60
8103;DHT22;4094;49.948;11.574;2022-08-23T01:00:31;19.70;57.60
8103;DHT22;4094;49.948;11.574;2022-08-23T01:03:01;19.70;57.60
8103;DHT22;4094;49.948;11.574;2022-08-23T01:08:20;19.60;57.80
8103;DHT22;4094;49.948;11.574;2022-08-23T01:10:54;19.60;57.80
8103;DHT22;4094;49.948;11.574;2022-08-23T01:13:28;19.50;57.70
8103;DHT22;4094;49.948;11.574;2022-08-23T01:16:06;19.50;57.70
8103;DHT22;4094;49.948;11.574;2022-08-23T01:18:37;19.50;57.80
8103;DHT22;4094;49.948;11.574;2022-08-23T01:21:10;19.40;57.70
8103;DHT22;4094;49.948;11.574;2022-08-23T01:23:46;19.40;57.70
8103;DHT22;4094;49.948;11.574;2022-08-23T01:26:18;19.40;57.90
8103;DHT22;4094;49.948;11.574;2022-08-23T01:28:50;19.40;58.10
8103;DHT22;4094;49.948;11.574;2022-08-23T01:31:20;19.30;58.10
8103;DHT22;4094;49.948;11.574;2022-08-23T01:33:54;19.30;58.30
8103;DHT22;4094;49.948;11.574;2022-08-23T01:36:26;19.30;58.40
8103;DHT22;4094;49.948;11.574;2022-08-23T01:38:56;19.30;58.40
8103;DHT22;4094;49.948;11.574;2022-08-23T01:41:25;19.30;58.30
8103;DHT22;4094;49.948;11.574;2022-08-23T01:43:54;19.30;58.30
8103;DHT22;4094;49.948;11.574;2022-08-23T01:46:26;19.20;58.20
8103;DHT22;4094;49.948;11.574;2022-08-23T01:48:55;19.20;58.10
8103;DHT22;4094;49.948;11.574;2022-08-23T01:51:28;19.20;58.30
8103;DHT22;4094;49.948;11.574;2022-08-23T01:53:59;19.10;58.10
8103;DHT22;4094;49.948;11.574;2022-08-23T01:56:29;19.10;58.10
8103;DHT22;4094;49.948;11.574;2022-08-23T01:59:11;19.10;58.10
8103;DHT22;4094;49.948;11.574;2022-08-23T02:01:45;19.10;58.20
8103;DHT22;4094;49.948;11.574;2022-08-23T02:04:16;19.10;58.30
8103;DHT22;4094;49.948;11.574;2022-08-23T02:06:45;19.00;58.30
8103;DHT22;4094;49.948;11.574;2022-08-23T02:09:20;19.00;58.30
8103;DHT22;4094;49.948;11.574;2022-08-23T02:11:53;19.00;58.40
8103;DHT22;4094;49.948;11.574;2022-08-23T02:14:23;19.00;58.40
8103;DHT22;4094;49.948;11.574;2022-08-23T02:16:56;18.90;58.40
8103;DHT22;4094;49.948;11.574;2022-08-23T02:19:36;18.90;58.50
8103;DHT22;4094;49.948;11.574;2022-08-23T02:22:07;18.90;58.50
8103;DHT22;4094;49.948;11.574;2022-08-23T02:24:40;18.90;58.60
8103;DHT22;4094;49.948;11.574;2022-08-23T02:27:11;18.80;58.50
8103;DHT22;4094;49.948;11.574;2022-08-23T02:29:44;18.80;58.50
8103;DHT22;4094;49.948;11.574;2022-08-23T02:32:16;18.80;58.50
8103;DHT22;4094;49.948;11.574;2022-08-23T02:34:47;18.80;58.50
8103;DHT22;4094;49.948;11.574;2022-08-23T02:37:31;18.80;58.50
8103;DHT22;4094;49.948;11.574;2022-08-23T02:40:02;18.70;58.50
8103;DHT22;4094;49.948;11.574;2022-08-23T02:42:31;18.70;58.60
8103;DHT22;4094;49.948;11.574;2022-08-23T02:45:03;18.70;58.60
8103;DHT22;4094;49.948;11.574;2022-08-23T02:47:34;18.60;58.60
8103;DHT22;4094;49.948;11.574;2022-08-23T02:50:19;18.60;58.60
8103;DHT22;4094;49.948;11.574;2022-08-23T02:52:49;18.60;58.60
8103;DHT22;4094;49.948;11.574;2022-08-23T02:55:19;18.50;58.70
8103;DHT22;4094;49.948;11.574;2022-08-23T02:57:48;18.50;58.70
8103;DHT22;4094;49.948;11.574;2022-08-23T03:00:18;18.40;58.70
8103;DHT22;4094;49.948;11.574;2022-08-23T03:02:50;18.40;58.80
8103;DHT22;4094;49.948;11.574;2022-08-23T03:05:20;18.30;58.90
8103;DHT22;4094;49.948;11.574;2022-08-23T03:07:49;18.30;58.90
8103;DHT22;4094;49.948;11.574;2022-08-23T03:10:20;18.20;58.90
8103;DHT22;4094;49.948;11.574;2022-08-23T03:12:55;18.20;59.00
8103;DHT22;4094;49.948;11.574;2022-08-23T03:15:25;18.20;58.90
8103;DHT22;4094;49.948;11.574;2022-08-23T03:17:54;18.20;58.90
8103;DHT22;4094;49.948;11.574;2022-08-23T03:20:23;18.10;59.00
8103;DHT22;4094;49.948;11.574;2022-08-23T03:22:52;18.10;59.10
8103;DHT22;4094;49.948;11.574;2022-08-23T03:25:25;18.10;59.10
8103;DHT22;4094;49.948;11.574;2022-08-23T03:28:14;18.00;59.20
8103;DHT22;4094;49.948;11.574;2022-08-23T03:30:44;18.00;59.20
8103;DHT22;4094;49.948;11.574;2022-08-23T03:33:14;18.00;59.40
8103;DHT22;4094;49.948;11.574;2022-08-23T03:35:46;18.00;59.40
8103;DHT22;4094;49.948;11.574;2022-08-23T03:38:15;17.90;59.50
8103;DHT22;4094;49.948;11.574;2022-08-23T03:40:48;17.90;59.50
8103;DHT22;4094;49.948;11.574;2022-08-23T03:43:19;17.90;59.40
8103;DHT22;4094;49.948;11.574;2022-08-23T03:45:48;17.90;59.30
8103;DHT22;4094;49.948;11.574;2022-08-23T03:48:17;17.90;59.30
8103;DHT22;4094;49.948;11.574;2022-08-23T03:50:48;17.90;59.30
8103;DHT22;4094;49.948;11.574;2022-08-23T03:53:22;17.80;59.20
8103;DHT22;4094;49.948;11.574;2022-08-23T03:55:54;17.80;59.30
8103;DHT22;4094;49.948;11.574;2022-08-23T03:58:24;17.80;59.30
8103;DHT22;4094;49.948;11.574;2022-08-23T04:00:54;17.70;59.30
8103;DHT22;4094;49.948;11.574;2022-08-23T04:03:25;17.70;59.30
8103;DHT22;4094;49.948;11.574;2022-08-23T04:06:02;17.70;59.30
8103;DHT22;4094;49.948;11.574;2022-08-23T04:08:32;17.70;59.30
8103;DHT22;4094;49.948;11.574;2022-08-23T04:11:05;17.70;59.30
8103;DHT22;4094;49.948;11.574;2022-08-23T04:13:37;17.60;59.20
8103;DHT22;4094;49.948;11.574;2022-08-23T04:16:06;17.60;59.30
8103;DHT22;4094;49.948;11.574;2022-08-23T04:18:37;17.60;59.30
8103;DHT22;4094;49.948;11.574;2022-08-23T04:21:08;17.60;59.30
8103;DHT22;4094;49.948;11.574;2022-08-23T04:23:38;17.60;59.40
8103;DHT22;4094;49.948;11.574;2022-08-23T04:26:10;17.60;59.30
8103;DHT22;4094;49.948;11.574;2022-08-23T04:28:42;17.60;59.20
8103;DHT22;4094;49.948;11.574;2022-08-23T04:31:13;17.50;59.20
8103;DHT22;4094;49.948;11.574;2022-08-23T04:33:46;17.50;59.20
8103;DHT22;4094;49.948;11.574;2022-08-23T04:36:20;17.50;59.20
8103;DHT22;4094;49.948;11.574;2022-08-23T04:38:51;17.40;59.30
8103;DHT22;4094;49.948;11.574;2022-08-23T04:41:22;17.40;59.40
8103;DHT22;4094;49.948;11.574;2022-08-23T04:44:09;17.40;59.60
8103;DHT22;4094;49.948;11.574;2022-08-23T04:46:39;17.30;59.70
8103;DHT22;4094;49.948;11.574;2022-08-23T04:49:11;17.30;59.70
8103;DHT22;4094;49.948;11.574;2022-08-23T04:51:40;17.30;59.70
8103;DHT22;4094;49.948;11.574;2022-08-23T04:54:21;17.30;59.70
8103;DHT22;4094;49.948;11.574;2022-08-23T04:57:10;17.30;59.70
8103;DHT22;4094;49.948;11.574;2022-08-23T04:59:40;17.30;59.70
8103;DHT22;4094;49.948;11.574;2022-08-23T05:02:09;17.30;59.90
8103;DHT22;4094;49.948;11.574;2022-08-23T05:04:39;17.20;60.10
8103;DHT22;4094;49.948;11.574;2022-08-23T05:07:09;17.30;60.50
8103;DHT22;4094;49.948;11.574;2022-08-23T05:09:38;17.30;60.80
8103;DHT22;4094;49.948;11.574;2022-08-23T05:12:08;17.30;60.70
8103;DHT22;4094;49.948;11.574;2022-08-23T05:14:38;17.30;60.80
8103;DHT22;4094;49.948;11.574;2022-08-23T05:17:11;17.30;61.00
8103;DHT22;4094;49.948;11.574;2022-08-23T05:19:40;17.40;61.60
8103;DHT22;4094;49.948;11.574;2022-08-23T05:22:15;17.40;61.80
8103;DHT22;4094;49.948;11.574;2022-08-23T05:25:05;17.40;61.00
8103;DHT22;4094;49.948;11.574;2022-08-23T05:27:35;17.40;60.80
8103;DHT22;4094;49.948;11.574;2022-08-23T05:30:07;17.50;60.80
8103;DHT22;4094;49.948;11.574;2022-08-23T05:32:42;17.50;60.90
8103;DHT22;4094;49.948;11.574;2022-08-23T05:35:13;17.60;60.80
8103;DHT22;4094;49.948;11.574;2022-08-23T05:37:44;17.60;60.90
8103;DHT22;4094;49.948;11.574;2022-08-23T05:40:15;17.70;60.90
8103;DHT22;4094;49.948;11.574;2022-08-23T05:42:58;17.70;60.80
8103;DHT22;4094;49.948;11.574;2022-08-23T05:45:28;17.80;60.70
8103;DHT22;4094;49.948;11.574;2022-08-23T05:47:57;17.80;60.60
8103;DHT22;4094;49.948;11.574;2022-08-23T05:50:36;17.90;60.50
8103;DHT22;4094;49.948;11.574;2022-08-23T05:53:07;17.90;60.50
8103;DHT22;4094;49.948;11.574;2022-08-23T05:55:37;18.00;60.60
8103;DHT22;4094;49.948;11.574;2022-08-23T05:58:15;18.00;60.60
8103;DHT22;4094;49.948;11.574;2022-08-23T06:00:47;18.10;60.60
8103;DHT22;4094;49.948;11.574;2022-08-23T06:03:16;18.10;60.40
8103;DHT22;4094;49.948;11.574;2022-08-23T06:05:46;18.20;60.40
8103;DHT22;4094;49.948;11.574;2022-08-23T06:08:16;18.20;60.10
8103;DHT22;4094;49.948;11.574;2022-08-23T06:10:45;18.30;60.10
8103;DHT22;4094;49.948;11.574;2022-08-23T06:13:23;18.30;60.00
8103;DHT22;4094;49.948;11.574;2022-08-23T06:15:54;18.40;60.00
8103;DHT22;4094;49.948;11.574;2022-08-23T06:18:24;18.40;60.00
8103;DHT22;4094;49.948;11.574;2022-08-23T06:21:03;18.50;60.10
8103;DHT22;4094;49.948;11.574;2022-08-23T06:23:42;18.60;60.10
8103;DHT22;4094;49.948;11.574;2022-08-23T06:26:16;18.60;60.10
8103;DHT22;4094;49.948;11.574;2022-08-23T06:28:47;18.70;59.90
8103;DHT22;4094;49.948;11.574;2022-08-23T06:31:21;18.80;60.00
8103;DHT22;4094;49.948;11.574;2022-08-23T06:34:11;18.80;59.90
8103;DHT22;4094;49.948;11.574;2022-08-23T06:37:18;19.00;60.30
8103;DHT22;4094;49.948;11.574;2022-08-23T06:40:07;19.10;60.30
8103;DHT22;4094;49.948;11.574;2022-08-23T06:43:08;19.20;60.10
8103;DHT22;4094;49.948;11.574;2022-08-23T06:45:52;19.20;59.80
8103;DHT22;4094;49.948;11.574;2022-08-23T06:48:26;19.30;59.70
8103;DHT22;4094;49.948;11.574;2022-08-23T06:50:56;19.40;59.50
8103;DHT22;4094;49.948;11.574;2022-08-23T06:53:31;19.40;60.00
8103;DHT22;4094;49.948;11.574;2022-08-23T06:56:16;19.50;59.30
8103;DHT22;4094;49.948;11.574;2022-08-23T06:59:02;19.60;59.30
8103;DHT22;4094;49.948;11.574;2022-08-23T07:02:03;19.70;59.30
8103;DHT22;4094;49.948;11.574;2022-08-23T07:04:53;19.80;59.20
8103;DHT22;4094;49.948;11.574;2022-08-23T07:07:29;19.90;59.10
8103;DHT22;4094;49.948;11.574;2022-08-23T07:10:12;20.00;59.00
8103;DHT22;4094;49.948;11.574;2022-08-23T07:12:42;20.00;58.80
8103;DHT22;4094;49.948;11.574;2022-08-23T07:15:13;20.10;58.70
8103;DHT22;4094;49.948;11.574;2022-08-23T07:17:45;20.20;58.40
8103;DHT22;4094;49.948;11.574;2022-08-23T07:20:16;20.30;58.50
8103;DHT22;4094;49.948;11.574;2022-08-23T07:22:45;20.30;58.50
8103;DHT22;4094;49.948;11.574;2022-08-23T07:25:15;20.40;58.60
8103;DHT22;4094;49.948;11.574;2022-08-23T07:27:47;20.50;58.50
8103;DHT22;4094;49.948;11.574;2022-08-23T07:30:19;20.60;58.70
8103;DHT22;4094;49.948;11.574;2022-08-23T07:32:50;20.70;58.70
8103;DHT22;4094;49.948;11.574;2022-08-23T07:35:22;20.80;58.60
8103;DHT22;4094;49.948;11.574;2022-08-23T07:37:56;20.90;58.50
8103;DHT22;4094;49.948;11.574;2022-08-23T07:40:31;21.10;58.70
8103;DHT22;4094;49.948;11.574;2022-08-23T07:43:06;21.20;58.30
8103;DHT22;4094;49.948;11.574;2022-08-23T07:45:37;21.40;58.40
8103;DHT22;4094;49.948;11.574;2022-08-23T07:48:09;21.50;58.40
8103;DHT22;4094;49.948;11.574;2022-08-23T07:50:58;21.60;58.60
8103;DHT22;4094;49.948;11.574;2022-08-23T07:53:29;21.80;58.00
8103;DHT22;4094;49.948;11.574;2022-08-23T07:56:08;22.00;57.90
8103;DHT22;4094;49.948;11.574;2022-08-23T07:59:01;22.10;57.80
8103;DHT22;4094;49.948;11.574;2022-08-23T08:01:37;22.30;57.20
8103;DHT22;4094;49.948;11.574;2022-08-23T08:04:09;22.40;56.90
8103;DHT22;4094;49.948;11.574;2022-08-23T08:06:45;22.50;56.80
8103;DHT22;4094;49.948;11.574;2022-08-23T08:09:38;22.60;56.60
8103;DHT22;4094;49.948;11.574;2022-08-23T08:12:08;22.70;56.70
8103;DHT22;4094;49.948;11.574;2022-08-23T08:14:40;22.80;56.50
8103;DHT22;4094;49.948;11.574;2022-08-23T08:17:11;22.90;56.40
8103;DHT22;4094;49.948;11.574;2022-08-23T08:20:09;23.00;56.50
8103;DHT22;4094;49.948;11.574;2022-08-23T08:22:45;23.10;56.40
8103;DHT22;4094;49.948;11.574;2022-08-23T08:25:59;23.30;56.00
8103;DHT22;4094;49.948;11.574;2022-08-23T08:28:30;23.40;56.40
8103;DHT22;4094;49.948;11.574;2022-08-23T08:30:59;23.50;56.20
8103;DHT22;4094;49.948;11.574;2022-08-23T08:33:30;23.70;56.00
8103;DHT22;4094;49.948;11.574;2022-08-23T08:36:03;23.80;55.40
8103;DHT22;4094;49.948;11.574;2022-08-23T08:38:37;23.90;55.60
8103;DHT22;4094;49.948;11.574;2022-08-23T08:41:24;24.00;54.90
8103;DHT22;4094;49.948;11.574;2022-08-23T08:44:02;24.10;54.60
8103;DHT22;4094;49.948;11.574;2022-08-23T08:46:43;24.20;53.90
8103;DHT22;4094;49.948;11.574;2022-08-23T08:49:21;24.30;54.20
8103;DHT22;4094;49.948;11.574;2022-08-23T08:52:07;24.40;53.70
8103;DHT22;4094;49.948;11.574;2022-08-23T08:54:43;24.40;53.70
8103;DHT22;4094;49.948;11.574;2022-08-23T08:57:18;24.50;53.30
8103;DHT22;4094;49.948;11.574;2022-08-23T08:59:58;24.60;53.00
8103;DHT22;4094;49.948;11.574;2022-08-23T09:02:32;24.60;52.80
8103;DHT22;4094;49.948;11.574;2022-08-23T09:05:11;24.70;52.90
8103;DHT22;4094;49.948;11.574;2022-08-23T09:07:48;24.80;53.00
8103;DHT22;4094;49.948;11.574;2022-08-23T09:10:43;24.80;52.40
8103;DHT22;4094;49.948;11.574;2022-08-23T09:16:24;24.90;52.30
8103;DHT22;4094;49.948;11.574;2022-08-23T09:18:58;25.00;51.90
8103;DHT22;4094;49.948;11.574;2022-08-23T09:21:32;25.00;51.80
8103;DHT22;4094;49.948;11.574;2022-08-23T09:24:07;25.10;51.50
8103;DHT22;4094;49.948;11.574;2022-08-23T09:26:58;25.10;51.40
8103;DHT22;4094;49.948;11.574;2022-08-23T09:29:30;25.10;51.60
8103;DHT22;4094;49.948;11.574;2022-08-23T09:32:01;25.20;52.10
8103;DHT22;4094;49.948;11.574;2022-08-23T09:34:41;25.20;51.80
8103;DHT22;4094;49.948;11.574;2022-08-23T09:37:17;25.20;51.70
8103;DHT22;4094;49.948;11.574;2022-08-23T09:39:49;25.20;51.40
8103;DHT22;4094;49.948;11.574;2022-08-23T09:42:32;25.30;51.50
8103;DHT22;4094;49.948;11.574;2022-08-23T09:45:05;25.30;50.90
8103;DHT22;4094;49.948;11.574;2022-08-23T09:47:36;25.30;51.30
8103;DHT22;4094;49.948;11.574;2022-08-23T09:50:22;25.30;51.30
8103;DHT22;4094;49.948;11.574;2022-08-23T09:52:58;25.40;51.10
8103;DHT22;4094;49.948;11.574;2022-08-23T09:55:35;25.40;51.20
8103;DHT22;4094;49.948;11.574;2022-08-23T09:58:19;25.40;50.80
8103;DHT22;4094;49.948;11.574;2022-08-23T10:01:07;25.40;50.60
8103;DHT22;4094;49.948;11.574;2022-08-23T10:03:40;25.40;50.10
8103;DHT22;4094;49.948;11.574;2022-08-23T10:06:29;25.40;50.10
8103;DHT22;4094;49.948;11.574;2022-08-23T10:09:05;25.40;50.10
8103;DHT22;4094;49.948;11.574;2022-08-23T10:11:40;25.40;50.50
8103;DHT22;4094;49.948;11.574;2022-08-23T10:14:15;25.50;50.90
8103;DHT22;4094;49.948;11.574;2022-08-23T10:16:56;25.50;51.00
8103;DHT22;4094;49.948;11.574;2022-08-23T10:19:33;25.60;51.40
8103;DHT22;4094;49.948;11.574;2022-08-23T10:22:11;25.60;50.90
8103;DHT22;4094;49.948;11.574;2022-08-23T10:24:56;25.60;51.00
8103;DHT22;4094;49.948;11.574;2022-08-23T10:27:39;25.70;51.10
8103;DHT22;4094;49.948;11.574;2022-08-23T10:30:35;25.70;50.90
8103;DHT22;4094;49.948;11.574;2022-08-23T10:33:13;25.70;50.70
8103;DHT22;4094;49.948;11.574;2022-08-23T10:35:58;25.70;50.90
8103;DHT22;4094;49.948;11.574;2022-08-23T10:38:35;25.70;50.70
8103;DHT22;4094;49.948;11.574;2022-08-23T10:44:21;25.80;50.10
8103;DHT22;4094;49.948;11.574;2022-08-23T10:47:03;25.80;50.20
8103;DHT22;4094;49.948;11.574;2022-08-23T10:49:39;25.90;50.60
8103;DHT22;4094;49.948;11.574;2022-08-23T10:52:14;25.90;50.30
8103;DHT22;4094;49.948;11.574;2022-08-23T10:54:48;25.90;50.40
8103;DHT22;4094;49.948;11.574;2022-08-23T10:57:31;25.90;50.30
8103;DHT22;4094;49.948;11.574;2022-08-23T11:00:05;26.00;50.70
8103;DHT22;4094;49.948;11.574;2022-08-23T11:02:44;26.00;50.70
8103;DHT22;4094;49.948;11.574;2022-08-23T11:05:29;26.00;50.30
8103;DHT22;4094;49.948;11.574;2022-08-23T11:08:07;26.00;50.10
8103;DHT22;4094;49.948;11.574;2022-08-23T11:10:45;26.00;50.30
8103;DHT22;4094;49.948;11.574;2022-08-23T11:13:26;26.10;50.40
8103;DHT22;4094;49.948;11.574;2022-08-23T11:15:59;26.10;50.40
8103;DHT22;4094;49.948;11.574;2022-08-23T11:18:40;26.10;49.90
8103;DHT22;4094;49.948;11.574;2022-08-23T11:21:42;26.20;49.30
8103;DHT22;4094;49.948;11.574;2022-08-23T11:24:47;26.20;49.80
8103;DHT22;4094;49.948;11.574;2022-08-23T11:27:34;26.20;50.10
8103;DHT22;4094;49.948;11.574;2022-08-23T11:30:43;26.20;49.90
8103;DHT22;4094;49.948;11.574;2022-08-23T11:33:20;26.20;50.10
8103;DHT22;4094;49.948;11.574;2022-08-23T11:36:13;26.30;48.90
8103;DHT22;4094;49.948;11.574;2022-08-23T11:39:07;26.30;49.30
8103;DHT22;4094;49.948;11.574;2022-08-23T11:41:59;26.20;49.40
8103;DHT22;4094;49.948;11.574;2022-08-23T11:44:36;26.20;49.50
8103;DHT22;4094;49.948;11.574;2022-08-23T11:47:10;26.20;49.20
8103;DHT22;4094;49.948;11.574;2022-08-23T11:50:04;26.30;48.90
8103;DHT22;4094;49.948;11.574;2022-08-23T11:55:59;26.40;49.50
8103;DHT22;4094;49.948;11.574;2022-08-23T11:58:57;26.50;50.20
8103;DHT22;4094;49.948;11.574;2022-08-23T12:01:35;26.60;49.50
8103;DHT22;4094;49.948;11.574;2022-08-23T12:04:08;26.60;49.40
8103;DHT22;4094;49.948;11.574;2022-08-23T12:06:44;26.70;49.40
8103;DHT22;4094;49.948;11.574;2022-08-23T12:09:53;26.70;48.70
8103;DHT22;4094;49.948;11.574;2022-08-23T12:12:33;26.80;49.10
8103;DHT22;4094;49.948;11.574;2022-08-23T12:15:11;26.90;48.40
8103;DHT22;4094;49.948;11.574;2022-08-23T12:20:40;27.00;48.40
8103;DHT22;4094;49.948;11.574;2022-08-23T12:23:18;27.10;48.10
8103;DHT22;4094;49.948;11.574;2022-08-23T12:26:05;27.10;47.60
8103;DHT22;4094;49.948;11.574;2022-08-23T12:28:41;27.20;48.00
8103;DHT22;4094;49.948;11.574;2022-08-23T12:31:19;27.20;46.70
8103;DHT22;4094;49.948;11.574;2022-08-23T12:34:11;27.30;47.60
8103;DHT22;4094;49.948;11.574;2022-08-23T12:36:47;27.40;47.70
8103;DHT22;4094;49.948;11.574;2022-08-23T12:39:24;27.50;47.10
8103;DHT22;4094;49.948;11.574;2022-08-23T12:42:05;27.60;47.10
8103;DHT22;4094;49.948;11.574;2022-08-23T12:44:36;27.70;47.10
8103;DHT22;4094;49.948;11.574;2022-08-23T12:47:10;27.80;47.00
8103;DHT22;4094;49.948;11.574;2022-08-23T12:49:53;28.00;46.90
8103;DHT22;4094;49.948;11.574;2022-08-23T12:52:25;28.10;46.80
8103;DHT22;4094;49.948;11.574;2022-08-23T12:54:55;28.20;46.50
8103;DHT22;4094;49.948;11.574;2022-08-23T12:57:30;28.30;46.20
8103;DHT22;4094;49.948;11.574;2022-08-23T13:00:15;28.40;46.10
8103;DHT22;4094;49.948;11.574;2022-08-23T13:02:50;28.60;46.30
8103;DHT22;4094;49.948;11.574;2022-08-23T13:05:30;28.70;44.80
8103;DHT22;4094;49.948;11.574;2022-08-23T13:08:02;28.80;45.10
8103;DHT22;4094;49.948;11.574;2022-08-23T13:10:33;28.80;45.30
8103;DHT22;4094;49.948;11.574;2022-08-23T13:13:02;28.90;45.30
8103;DHT22;4094;49.948;11.574;2022-08-23T13:15:47;28.90;44.30
8103;DHT22;4094;49.948;11.574;2022-08-23T13:18:29;28.90;44.70
8103;DHT22;4094;49.948;11.574;2022-08-23T13:21:24;29.00;44.40
8103;DHT22;4094;49.948;11.574;2022-08-23T13:23:56;29.00;43.90
8103;DHT22;4094;49.948;11.574;2022-08-23T13:26:35;29.00;43.70
8103;DHT22;4094;49.948;11.574;2022-08-23T13:29:22;29.00;44.00
8103;DHT22;4094;49.948;11.574;2022-08-23T13:31:58;29.10;44.20
8103;DHT22;4094;49.948;11.574;2022-08-23T13:34:39;29.10;44.30
8103;DHT22;4094;49.948;11.574;2022-08-23T13:37:20;29.20;44.40
8103;DHT22;4094;49.948;11.574;2022-08-23T13:39:53;29.20;43.70
8103;DHT22;4094;49.948;11.574;2022-08-23T13:42:25;29.30;43.40
8103;DHT22;4094;49.948;11.574;2022-08-23T13:44:56;29.30;43.40
8103;DHT22;4094;49.948;11.574;2022-08-23T13:47:27;29.30;43.50
8103;DHT22;4094;49.948;11.574;2022-08-23T13:50:03;29.30;43.30
8103;DHT22;4094;49.948;11.574;2022-08-23T13:52:38;29.30;42.60
8103;DHT22;4094;49.948;11.574;2022-08-23T13:55:28;29.30;42.90
8103;DHT22;4094;49.948;11.574;2022-08-23T13:57:57;29.30;42.80
8103;DHT22;4094;49.948;11.574;2022-08-23T14:00:27;29.20;43.10
8103;DHT22;4094;49.948;11.574;2022-08-23T14:02:58;29.20;42.50
8103;DHT22;4094;49.948;11.574;2022-08-23T14:05:27;29.20;42.90
8103;DHT22;4094;49.948;11.574;2022-08-23T14:08:00;29.30;43.00
8103;DHT22;4094;49.948;11.574;2022-08-23T14:10:29;29.30;42.90
8103;DHT22;4094;49.948;11.574;2022-08-23T14:12:59;29.30;42.80
8103;DHT22;4094;49.948;11.574;2022-08-23T14:15:29;29.30;43.00
8103;DHT22;4094;49.948;11.574;2022-08-23T14:18:19;29.30;42.80
8103;DHT22;4094;49.948;11.574;2022-08-23T14:20:48;29.30;42.20
8103;DHT22;4094;49.948;11.574;2022-08-23T14:23:18;29.30;42.50
8103;DHT22;4094;49.948;11.574;2022-08-23T14:25:48;29.30;42.60
8103;DHT22;4094;49.948;11.574;2022-08-23T14:28:21;29.40;42.40
8103;DHT22;4094;49.948;11.574;2022-08-23T14:30:51;29.30;41.90
8103;DHT22;4094;49.948;11.574;2022-08-23T14:33:22;29.30;41.90
8103;DHT22;4094;49.948;11.574;2022-08-23T14:35:51;29.30;42.00
8103;DHT22;4094;49.948;11.574;2022-08-23T14:38:20;29.30;42.30
8103;DHT22;4094;49.948;11.574;2022-08-23T14:40:54;29.30;42.00
8103;DHT22;4094;49.948;11.574;2022-08-23T14:43:26;29.20;41.60
8103;DHT22;4094;49.948;11.574;2022-08-23T14:45:56;29.20;41.80
8103;DHT22;4094;49.948;11.574;2022-08-23T14:48:27;29.10;41.50
8103;DHT22;4094;49.948;11.574;2022-08-23T14:50:56;29.10;41.70
8103;DHT22;4094;49.948;11.574;2022-08-23T14:53:28;29.00;41.80
8103;DHT22;4094;49.948;11.574;2022-08-23T14:55:58;29.00;41.80
8103;DHT22;4094;49.948;11.574;2022-08-23T14:58:47;28.90;41.60
8103;DHT22;4094;49.948;11.574;2022-08-23T15:01:17;28.80;41.50
8103;DHT22;4094;49.948;11.574;2022-08-23T15:03:48;28.80;41.80
8103;DHT22;4094;49.948;11.574;2022-08-23T15:06:18;28.70;41.70
8103;DHT22;4094;49.948;11.574;2022-08-23T15:08:48;28.60;42.00
8103;DHT22;4094;49.948;11.574;2022-08-23T15:11:18;28.50;42.00
8103;DHT22;4094;49.948;11.574;2022-08-23T15:14:07;28.50;42.10
8103;DHT22;4094;49.948;11.574;2022-08-23T15:16:36;28.50;42.20
8103;DHT22;4094;49.948;11.574;2022-08-23T15:19:07;28.40;42.30
8103;DHT22;4094;49.948;11.574;2022-08-23T15:21:36;28.30;42.20
8103;DHT22;4094;49.948;11.574;2022-08-23T15:24:06;28.30;42.20
8103;DHT22;4094;49.948;11.574;2022-08-23T15:26:35;28.20;42.10
8103;DHT22;4094;49.948;11.574;2022-08-23T15:29:05;28.10;42.00
8103;DHT22;4094;49.948;11.574;2022-08-23T15:31:34;28.10;42.20
8103;DHT22;4094;49.948;11.574;2022-08-23T15:34:03;28.10;42.20
8103;DHT22;4094;49.948;11.574;2022-08-23T15:36:41;28.00;42.20
8103;DHT22;4094;49.948;11.574;2022-08-23T15:39:10;28.00;42.30
8103;DHT22;4094;49.948;11.574;2022-08-23T15:41:40;27.90;42.40
8103;DHT22;4094;49.948;11.574;2022-08-23T15:44:09;27.90;42.20
8103;DHT22;4094;49.948;11.574;2022-08-23T15:46:38;27.90;42.40
8103;DHT22;4094;49.948;11.574;2022-08-23T15:49:10;27.80;42.20
8103;DHT22;4094;49.948;11.574;2022-08-23T15:51:42;27.80;42.20
8103;DHT22;4094;49.948;11.574;2022-08-23T15:54:11;27.70;42.20
8103;DHT22;4094;49.948;11.574;2022-08-23T15:56:43;27.70;42.20
8103;DHT22;4094;49.948;11.574;2022-08-23T15:59:14;27.70;42.30
8103;DHT22;4094;49.948;11.574;2022-08-23T16:01:44;27.60;42.10
8103;DHT22;4094;49.948;11.574;2022-08-23T16:04:14;27.60;42.30
8103;DHT22;4094;49.948;11.574;2022-08-23T16:06:44;27.60;42.50
8103;DHT22;4094;49.948;11.574;2022-08-23T16:09:17;27.60;42.60
8103;DHT22;4094;49.948;11.574;2022-08-23T16:11:48;27.50;42.60
8103;DHT22;4094;49.948;11.574;2022-08-23T16:14:18;27.50;42.80
8103;DHT22;4094;49.948;11.574;2022-08-23T16:16:47;27.50;42.70
8103;DHT22;4094;49.948;11.574;2022-08-23T16:19:16;27.40;42.70
8103;DHT22;4094;49.948;11.574;2022-08-23T16:21:49;27.40;42.90
8103;DHT22;4094;49.948;11.574;2022-08-23T16:24:20;27.40;42.90
8103;DHT22;4094;49.948;11.574;2022-08-23T16:26:51;27.30;42.80
8103;DHT22;4094;49.948;11.574;2022-08-23T16:29:21;27.30;42.90
8103;DHT22;4094;49.948;11.574;2022-08-23T16:31:50;27.30;43.00
8103;DHT22;4094;49.948;11.574;2022-08-23T16:34:20;27.30;42.90
8103;DHT22;4094;49.948;11.574;2022-08-23T16:36:54;27.30;43.00
8103;DHT22;4094;49.948;11.574;2022-08-23T16:39:24;27.20;42.70
8103;DHT22;4094;49.948;11.574;2022-08-23T16:41:53;27.20;42.80
8103;DHT22;4094;49.948;11.574;2022-08-23T16:44:23;27.20;42.90
8103;DHT22;4094;49.948;11.574;2022-08-23T16:46:52;27.20;43.00
8103;DHT22;4094;49.948;11.574;2022-08-23T16:49:21;27.10;43.00
8103;DHT22;4094;49.948;11.574;2022-08-23T16:51:52;27.10;43.20